sensor_id;sensor_type;location;lat;lon;timestamp;P1;durP1;ratioP1;P2;durP2;ratioP2
15327;SDS011;7764;51.430;6.840;2023-04-25T00:01:34;15.97;;;6.33;;
15327;SDS011;7764;51.430;6.840;2023-04-25T00:04:02;16.23;;;6.20;;
15327;SDS011;7764;51.430;6.840;2023-04-25T00:06:30;15.37;;;6.40;;
15327;SDS011;7764;51.430;6.840;2023-04-25T00:08:58;15.80;;;6.17;;
15327;SDS011;7764;51.430;6.840;2023-04-25T00:11:24;15.53;;;6.37;;
15327;SDS011;7764;51.430;6.840;2023-04-25T00:13:51;15.07;;;6.20;;
15327;SDS011;7764;51.430;6.840;2023-04-25T00:16:19;17.97;;;6.60;;
15327;SDS011;7764;51.430;6.840;2023-04-25T00:18:47;14.37;;;6.00;;
15327;SDS011;7764;51.430;6.840;2023-04-25T00:21:16;17.00;;;6.70;;
15327;SDS011;7764;51.430;6.840;2023-04-25T00:23:44;16.43;;;6.57;;
15327;SDS011;7764;51.430;6.840;2023-04-25T00:26:12;14.17;;;5.90;;
15327;SDS011;7764;51.430;6.840;2023-04-25T00:28:39;16.87;;;6.47;;
15327;SDS011;7764;51.430;6.840;2023-04-25T00:31:06;14.30;;;6.33;;
15327;SDS011;7764;51.430;6.840;2023-04-25T00:33:33;18.10;;;6.40;;
15327;SDS011;7764;51.430;6.840;2023-04-25T00:36:01;14.03;;;6.87;;
15327;SDS011;7764;51.430;6.840;2023-04-25T00:38:28;15.73;;;6.30;;
15327;SDS011;7764;51.430;6.840;2023-04-25T00:40:55;18.33;;;8.07;;
15327;SDS011;7764;51.430;6.840;2023-04-25T00:43:22;19.00;;;7.73;;
15327;SDS011;7764;51.430;6.840;2023-04-25T00:45:50;15.33;;;7.50;;
15327;SDS011;7764;51.430;6.840;2023-04-25T00:48:20;21.67;;;7.57;;
15327;SDS011;7764;51.430;6.840;2023-04-25T00:50:49;24.07;;;8.10;;
15327;SDS011;7764;51.430;6.840;2023-04-25T00:53:19;17.47;;;7.17;;
15327;SDS011;7764;51.430;6.840;2023-04-25T00:55:47;14.53;;;6.43;;
15327;SDS011;7764;51.430;6.840;2023-04-25T00:58:15;16.37;;;7.83;;
15327;SDS011;7764;51.430;6.840;2023-04-25T01:00:43;18.30;;;7.47;;
15327;SDS011;7764;51.430;6.840;2023-04-25T01:03:11;17.83;;;7.47;;
15327;SDS011;7764;51.430;6.840;2023-04-25T01:05:39;18.60;;;7.90;;
15327;SDS011;7764;51.430;6.840;2023-04-25T01:08:06;18.13;;;8.50;;
15327;SDS011;7764;51.430;6.840;2023-04-25T01:10:35;20.13;;;9.00;;
15327;SDS011;7764;51.430;6.840;2023-04-25T01:13:02;22.97;;;8.30;;
15327;SDS011;7764;51.430;6.840;2023-04-25T01:15:29;17.00;;;8.57;;
15327;SDS011;7764;51.430;6.840;2023-04-25T01:17:56;20.50;;;8.97;;
15327;SDS011;7764;51.430;6.840;2023-04-25T01:20:25;20.63;;;10.33;;
15327;SDS011;7764;51.430;6.840;2023-04-25T01:22:54;27.03;;;10.03;;
15327;SDS011;7764;51.430;6.840;2023-04-25T01:25:21;19.33;;;9.27;;
15327;SDS011;7764;51.430;6.840;2023-04-25T01:27:49;22.83;;;9.57;;
15327;SDS011;7764;51.430;6.840;2023-04-25T01:30:16;18.53;;;8.43;;
15327;SDS011;7764;51.430;6.840;2023-04-25T01:32:43;20.27;;;8.73;;
15327;SDS011;7764;51.430;6.840;2023-04-25T01:35:11;17.90;;;8.37;;
15327;SDS011;7764;51.430;6.840;2023-04-25T01:37:38;17.27;;;8.23;;
15327;SDS011;7764;51.430;6.840;2023-04-25T01:40:08;18.87;;;7.73;;
15327;SDS011;7764;51.430;6.840;2023-04-25T01:42:36;22.80;;;8.97;;
15327;SDS011;7764;51.430;6.840;2023-04-25T01:45:05;19.63;;;8.57;;
15327;SDS011;7764;51.430;6.840;2023-04-25T01:47:33;15.60;;;7.53;;
15327;SDS011;7764;51.430;6.840;2023-04-25T01:50:00;19.67;;;7.80;;
15327;SDS011;7764;51.430;6.840;2023-04-25T01:52:30;16.33;;;8.00;;
15327;SDS011;7764;51.430;6.840;2023-04-25T01:54:57;19.33;;;7.80;;
15327;SDS011;7764;51.430;6.840;2023-04-25T01:57:26;17.73;;;7.80;;
15327;SDS011;7764;51.430;6.840;2023-04-25T01:59:54;17.53;;;7.70;;
15327;SDS011;7764;51.430;6.840;2023-04-25T02:02:25;14.50;;;7.27;;
15327;SDS011;7764;51.430;6.840;2023-04-25T02:04:52;17.60;;;7.07;;
15327;SDS011;7764;51.430;6.840;2023-04-25T02:07:19;14.20;;;7.20;;
15327;SDS011;7764;51.430;6.840;2023-04-25T02:09:46;18.53;;;8.50;;
15327;SDS011;7764;51.430;6.840;2023-04-25T02:12:13;16.33;;;7.13;;
15327;SDS011;7764;51.430;6.840;2023-04-25T02:14:41;16.30;;;7.37;;
15327;SDS011;7764;51.430;6.840;2023-04-25T02:17:08;17.67;;;7.60;;
15327;SDS011;7764;51.430;6.840;2023-04-25T02:19:35;17.83;;;11.07;;
15327;SDS011;7764;51.430;6.840;2023-04-25T02:22:02;14.67;;;7.53;;
15327;SDS011;7764;51.430;6.840;2023-04-25T02:24:28;16.33;;;7.30;;
15327;SDS011;7764;51.430;6.840;2023-04-25T02:26:56;19.33;;;7.60;;
15327;SDS011;7764;51.430;6.840;2023-04-25T02:29:23;16.57;;;7.60;;
15327;SDS011;7764;51.430;6.840;2023-04-25T02:31:51;18.60;;;8.20;;
15327;SDS011;7764;51.430;6.840;2023-04-25T02:34:18;16.27;;;7.30;;
15327;SDS011;7764;51.430;6.840;2023-04-25T02:36:48;16.03;;;7.60;;
15327;SDS011;7764;51.430;6.840;2023-04-25T02:39:15;18.63;;;8.60;;
15327;SDS011;7764;51.430;6.840;2023-04-25T02:41:42;15.93;;;7.27;;
15327;SDS011;7764;51.430;6.840;2023-04-25T02:44:09;14.97;;;7.57;;
15327;SDS011;7764;51.430;6.840;2023-04-25T02:46:36;16.20;;;7.63;;
15327;SDS011;7764;51.430;6.840;2023-04-25T02:49:04;17.23;;;7.87;;
15327;SDS011;7764;51.430;6.840;2023-04-25T02:51:31;15.13;;;7.30;;
15327;SDS011;7764;51.430;6.840;2023-04-25T02:53:58;16.40;;;7.50;;
15327;SDS011;7764;51.430;6.840;2023-04-25T02:56:25;18.97;;;7.97;;
15327;SDS011;7764;51.430;6.840;2023-04-25T02:58:52;17.77;;;7.87;;
15327;SDS011;7764;51.430;6.840;2023-04-25T03:01:19;18.90;;;8.10;;
15327;SDS011;7764;51.430;6.840;2023-04-25T03:03:46;18.03;;;7.40;;
15327;SDS011;7764;51.430;6.840;2023-04-25T03:06:14;20.33;;;7.80;;
15327;SDS011;7764;51.430;6.840;2023-04-25T03:08:41;23.20;;;7.37;;
15327;SDS011;7764;51.430;6.840;2023-04-25T03:11:08;14.87;;;7.57;;
15327;SDS011;7764;51.430;6.840;2023-04-25T03:13:35;15.23;;;7.00;;
15327;SDS011;7764;51.430;6.840;2023-04-25T03:16:02;18.17;;;6.73;;
15327;SDS011;7764;51.430;6.840;2023-04-25T03:18:29;17.03;;;6.50;;
15327;SDS011;7764;51.430;6.840;2023-04-25T03:20:56;17.07;;;7.27;;
15327;SDS011;7764;51.430;6.840;2023-04-25T03:23:24;20.53;;;7.00;;
15327;SDS011;7764;51.430;6.840;2023-04-25T03:25:51;19.87;;;7.10;;
15327;SDS011;7764;51.430;6.840;2023-04-25T03:28:18;14.70;;;6.77;;
15327;SDS011;7764;51.430;6.840;2023-04-25T03:30:45;20.43;;;8.00;;
15327;SDS011;7764;51.430;6.840;2023-04-25T03:33:12;32.57;;;13.23;;
15327;SDS011;7764;51.430;6.840;2023-04-25T03:35:39;21.47;;;7.33;;
15327;SDS011;7764;51.430;6.840;2023-04-25T03:38:06;23.00;;;7.47;;
15327;SDS011;7764;51.430;6.840;2023-04-25T03:40:34;17.67;;;7.27;;
15327;SDS011;7764;51.430;6.840;2023-04-25T03:43:01;16.27;;;7.10;;
15327;SDS011;7764;51.430;6.840;2023-04-25T03:45:28;17.53;;;7.30;;
15327;SDS011;7764;51.430;6.840;2023-04-25T03:47:54;19.97;;;7.13;;
15327;SDS011;7764;51.430;6.840;2023-04-25T03:50:21;22.77;;;7.63;;
15327;SDS011;7764;51.430;6.840;2023-04-25T03:52:48;20.33;;;7.23;;
15327;SDS011;7764;51.430;6.840;2023-04-25T03:55:15;18.87;;;7.70;;
15327;SDS011;7764;51.430;6.840;2023-04-25T03:57:43;17.80;;;7.73;;
15327;SDS011;7764;51.430;6.840;2023-04-25T04:00:10;17.27;;;6.93;;
15327;SDS011;7764;51.430;6.840;2023-04-25T04:02:38;20.53;;;8.07;;
15327;SDS011;7764;51.430;6.840;2023-04-25T04:05:05;20.67;;;7.47;;
15327;SDS011;7764;51.430;6.840;2023-04-25T04:07:32;19.10;;;7.50;;
15327;SDS011;7764;51.430;6.840;2023-04-25T04:10:04;20.77;;;7.53;;
15327;SDS011;7764;51.430;6.840;2023-04-25T04:12:32;21.50;;;6.90;;
15327;SDS011;7764;51.430;6.840;2023-04-25T04:15:00;24.57;;;8.70;;
15327;SDS011;7764;51.430;6.840;2023-04-25T04:17:28;19.40;;;7.03;;
15327;SDS011;7764;51.430;6.840;2023-04-25T04:19:54;21.93;;;7.83;;
15327;SDS011;7764;51.430;6.840;2023-04-25T04:22:21;21.50;;;7.43;;
15327;SDS011;7764;51.430;6.840;2023-04-25T04:24:49;18.67;;;7.60;;
15327;SDS011;7764;51.430;6.840;2023-04-25T04:27:16;20.17;;;7.57;;
15327;SDS011;7764;51.430;6.840;2023-04-25T04:29:44;17.93;;;7.10;;
15327;SDS011;7764;51.430;6.840;2023-04-25T04:32:13;19.93;;;7.67;;
15327;SDS011;7764;51.430;6.840;2023-04-25T04:34:42;20.63;;;7.60;;
15327;SDS011;7764;51.430;6.840;2023-04-25T04:37:09;22.53;;;8.00;;
15327;SDS011;7764;51.430;6.840;2023-04-25T04:39:38;22.03;;;7.57;;
15327;SDS011;7764;51.430;6.840;2023-04-25T04:42:05;20.93;;;7.57;;
15327;SDS011;7764;51.430;6.840;2023-04-25T04:44:32;35.63;;;20.10;;
15327;SDS011;7764;51.430;6.840;2023-04-25T04:46:59;26.27;;;11.87;;
15327;SDS011;7764;51.430;6.840;2023-04-25T04:49:28;29.57;;;12.50;;
15327;SDS011;7764;51.430;6.840;2023-04-25T04:51:55;18.20;;;7.90;;
15327;SDS011;7764;51.430;6.840;2023-04-25T04:54:22;26.48;;;9.13;;
15327;SDS011;7764;51.430;6.840;2023-04-25T04:56:49;24.17;;;8.47;;
15327;SDS011;7764;51.430;6.840;2023-04-25T04:59:17;29.07;;;9.27;;
15327;SDS011;7764;51.430;6.840;2023-04-25T05:01:44;28.20;;;9.27;;
15327;SDS011;7764;51.430;6.840;2023-04-25T05:04:11;20.03;;;8.10;;
15327;SDS011;7764;51.430;6.840;2023-04-25T05:06:40;21.90;;;8.27;;
15327;SDS011;7764;51.430;6.840;2023-04-25T05:09:06;18.17;;;8.77;;
15327;SDS011;7764;51.430;6.840;2023-04-25T05:11:33;22.73;;;8.93;;
15327;SDS011;7764;51.430;6.840;2023-04-25T05:14:00;27.50;;;9.00;;
15327;SDS011;7764;51.430;6.840;2023-04-25T05:16:27;19.73;;;8.43;;
15327;SDS011;7764;51.430;6.840;2023-04-25T05:18:54;20.77;;;8.47;;
15327;SDS011;7764;51.430;6.840;2023-04-25T05:21:21;27.53;;;13.07;;
15327;SDS011;7764;51.430;6.840;2023-04-25T05:23:49;17.07;;;8.27;;
15327;SDS011;7764;51.430;6.840;2023-04-25T05:26:16;28.00;;;9.07;;
15327;SDS011;7764;51.430;6.840;2023-04-25T05:28:43;18.00;;;8.27;;
15327;SDS011;7764;51.430;6.840;2023-04-25T05:31:10;24.17;;;8.10;;
15327;SDS011;7764;51.430;6.840;2023-04-25T05:33:37;21.27;;;7.77;;
15327;SDS011;7764;51.430;6.840;2023-04-25T05:36:04;21.73;;;7.80;;
15327;SDS011;7764;51.430;6.840;2023-04-25T05:38:32;20.33;;;7.43;;
15327;SDS011;7764;51.430;6.840;2023-04-25T05:41:00;22.07;;;7.43;;
15327;SDS011;7764;51.430;6.840;2023-04-25T05:43:27;22.73;;;7.53;;
15327;SDS011;7764;51.430;6.840;2023-04-25T05:45:54;20.00;;;9.50;;
15327;SDS011;7764;51.430;6.840;2023-04-25T05:48:21;25.70;;;9.33;;
15327;SDS011;7764;51.430;6.840;2023-04-25T05:50:48;20.77;;;8.00;;
15327;SDS011;7764;51.430;6.840;2023-04-25T05:53:16;21.37;;;8.33;;
15327;SDS011;7764;51.430;6.840;2023-04-25T05:55:43;18.30;;;7.87;;
15327;SDS011;7764;51.430;6.840;2023-04-25T05:58:11;21.50;;;7.97;;
15327;SDS011;7764;51.430;6.840;2023-04-25T06:00:38;21.27;;;7.70;;
15327;SDS011;7764;51.430;6.840;2023-04-25T06:03:06;32.87;;;8.40;;
15327;SDS011;7764;51.430;6.840;2023-04-25T06:05:34;26.63;;;11.27;;
15327;SDS011;7764;51.430;6.840;2023-04-25T06:08:01;26.27;;;7.93;;
15327;SDS011;7764;51.430;6.840;2023-04-25T06:10:28;21.67;;;8.13;;
15327;SDS011;7764;51.430;6.840;2023-04-25T06:12:55;23.20;;;9.57;;
15327;SDS011;7764;51.430;6.840;2023-04-25T06:15:23;30.27;;;9.63;;
15327;SDS011;7764;51.430;6.840;2023-04-25T06:17:50;28.53;;;9.17;;
15327;SDS011;7764;51.430;6.840;2023-04-25T06:20:17;20.57;;;7.37;;
15327;SDS011;7764;51.430;6.840;2023-04-25T06:22:47;24.20;;;8.10;;
15327;SDS011;7764;51.430;6.840;2023-04-25T06:25:14;19.80;;;7.33;;
15327;SDS011;7764;51.430;6.840;2023-04-25T06:27:41;23.20;;;8.17;;
15327;SDS011;7764;51.430;6.840;2023-04-25T06:30:09;20.60;;;8.80;;
15327;SDS011;7764;51.430;6.840;2023-04-25T06:32:38;20.43;;;7.30;;
15327;SDS011;7764;51.430;6.840;2023-04-25T06:35:05;22.57;;;7.63;;
15327;SDS011;7764;51.430;6.840;2023-04-25T06:37:33;21.10;;;6.93;;
15327;SDS011;7764;51.430;6.840;2023-04-25T06:39:59;17.33;;;6.13;;
15327;SDS011;7764;51.430;6.840;2023-04-25T06:42:27;17.37;;;7.13;;
15327;SDS011;7764;51.430;6.840;2023-04-25T06:44:54;14.73;;;5.63;;
15327;SDS011;7764;51.430;6.840;2023-04-25T06:47:21;14.77;;;5.17;;
15327;SDS011;7764;51.430;6.840;2023-04-25T06:49:52;15.77;;;6.97;;
15327;SDS011;7764;51.430;6.840;2023-04-25T06:52:19;17.57;;;7.57;;
15327;SDS011;7764;51.430;6.840;2023-04-25T06:54:46;18.93;;;7.30;;
15327;SDS011;7764;51.430;6.840;2023-04-25T06:57:13;18.50;;;8.10;;
15327;SDS011;7764;51.430;6.840;2023-04-25T06:59:39;21.30;;;8.10;;
15327;SDS011;7764;51.430;6.840;2023-04-25T07:02:06;18.60;;;6.67;;
15327;SDS011;7764;51.430;6.840;2023-04-25T07:04:33;11.57;;;5.10;;
15327;SDS011;7764;51.430;6.840;2023-04-25T07:07:02;13.23;;;5.57;;
15327;SDS011;7764;51.430;6.840;2023-04-25T07:09:29;12.93;;;5.30;;
15327;SDS011;7764;51.430;6.840;2023-04-25T07:11:58;13.40;;;5.40;;
15327;SDS011;7764;51.430;6.840;2023-04-25T07:14:26;15.80;;;7.10;;
15327;SDS011;7764;51.430;6.840;2023-04-25T07:16:53;19.77;;;5.93;;
15327;SDS011;7764;51.430;6.840;2023-04-25T07:19:21;18.27;;;5.87;;
15327;SDS011;7764;51.430;6.840;2023-04-25T07:21:48;18.40;;;6.23;;
15327;SDS011;7764;51.430;6.840;2023-04-25T07:24:17;14.07;;;6.43;;
15327;SDS011;7764;51.430;6.840;2023-04-25T07:26:44;17.07;;;6.97;;
15327;SDS011;7764;51.430;6.840;2023-04-25T07:29:10;18.53;;;7.23;;
15327;SDS011;7764;51.430;6.840;2023-04-25T07:31:37;15.40;;;7.10;;
15327;SDS011;7764;51.430;6.840;2023-04-25T07:34:05;14.57;;;5.63;;
15327;SDS011;7764;51.430;6.840;2023-04-25T07:36:32;17.20;;;6.87;;
15327;SDS011;7764;51.430;6.840;2023-04-25T07:38:58;17.73;;;7.10;;
15327;SDS011;7764;51.430;6.840;2023-04-25T07:41:27;20.53;;;8.37;;
15327;SDS011;7764;51.430;6.840;2023-04-25T07:43:53;19.70;;;8.30;;
15327;SDS011;7764;51.430;6.840;2023-04-25T07:46:20;15.47;;;6.33;;
15327;SDS011;7764;51.430;6.840;2023-04-25T07:48:47;15.23;;;5.83;;
15327;SDS011;7764;51.430;6.840;2023-04-25T07:51:14;13.80;;;6.07;;
15327;SDS011;7764;51.430;6.840;2023-04-25T07:53:41;12.47;;;4.73;;
15327;SDS011;7764;51.430;6.840;2023-04-25T07:56:08;15.33;;;5.20;;
15327;SDS011;7764;51.430;6.840;2023-04-25T07:58:37;12.83;;;5.20;;
15327;SDS011;7764;51.430;6.840;2023-04-25T08:01:03;11.40;;;5.17;;
15327;SDS011;7764;51.430;6.840;2023-04-25T08:03:30;11.80;;;4.70;;
15327;SDS011;7764;51.430;6.840;2023-04-25T08:05:57;12.73;;;4.63;;
15327;SDS011;7764;51.430;6.840;2023-04-25T08:08:24;13.73;;;5.03;;
15327;SDS011;7764;51.430;6.840;2023-04-25T08:10:51;11.67;;;4.27;;
15327;SDS011;7764;51.430;6.840;2023-04-25T08:13:17;12.27;;;4.27;;
15327;SDS011;7764;51.430;6.840;2023-04-25T08:15:46;12.37;;;4.37;;
15327;SDS011;7764;51.430;6.840;2023-04-25T08:18:13;12.90;;;3.90;;
15327;SDS011;7764;51.430;6.840;2023-04-25T08:20:40;14.53;;;5.03;;
15327;SDS011;7764;51.430;6.840;2023-04-25T08:23:06;12.07;;;4.33;;
15327;SDS011;7764;51.430;6.840;2023-04-25T08:25:33;11.00;;;4.37;;
15327;SDS011;7764;51.430;6.840;2023-04-25T08:28:00;14.23;;;5.13;;
15327;SDS011;7764;51.430;6.840;2023-04-25T08:30:28;11.73;;;4.60;;
15327;SDS011;7764;51.430;6.840;2023-04-25T08:32:56;14.87;;;4.30;;
15327;SDS011;7764;51.430;6.840;2023-04-25T08:35:23;11.70;;;4.30;;
15327;SDS011;7764;51.430;6.840;2023-04-25T08:37:49;10.83;;;3.80;;
15327;SDS011;7764;51.430;6.840;2023-04-25T08:40:16;11.13;;;4.37;;
15327;SDS011;7764;51.430;6.840;2023-04-25T08:42:50;10.43;;;3.67;;
15327;SDS011;7764;51.430;6.840;2023-04-25T08:45:20;13.30;;;3.40;;
15327;SDS011;7764;51.430;6.840;2023-04-25T08:47:47;9.13;;;2.70;;
15327;SDS011;7764;51.430;6.840;2023-04-25T08:50:19;15.30;;;4.10;;
15327;SDS011;7764;51.430;6.840;2023-04-25T08:52:47;11.80;;;3.03;;
15327;SDS011;7764;51.430;6.840;2023-04-25T08:55:17;10.53;;;3.83;;
15327;SDS011;7764;51.430;6.840;2023-04-25T08:57:46;12.13;;;3.70;;
15327;SDS011;7764;51.430;6.840;2023-04-25T09:00:13;8.73;;;2.80;;
15327;SDS011;7764;51.430;6.840;2023-04-25T09:02:41;11.87;;;3.80;;
15327;SDS011;7764;51.430;6.840;2023-04-25T09:05:09;10.20;;;3.23;;
15327;SDS011;7764;51.430;6.840;2023-04-25T09:07:39;11.47;;;3.10;;
15327;SDS011;7764;51.430;6.840;2023-04-25T09:10:07;13.77;;;3.13;;
15327;SDS011;7764;51.430;6.840;2023-04-25T09:12:34;7.30;;;2.57;;
15327;SDS011;7764;51.430;6.840;2023-04-25T09:15:05;10.30;;;3.00;;
15327;SDS011;7764;51.430;6.840;2023-04-25T09:17:33;13.77;;;4.07;;
15327;SDS011;7764;51.430;6.840;2023-04-25T09:20:05;13.07;;;3.97;;
15327;SDS011;7764;51.430;6.840;2023-04-25T09:22:34;7.93;;;3.20;;
15327;SDS011;7764;51.430;6.840;2023-04-25T09:25:03;16.00;;;3.10;;
15327;SDS011;7764;51.430;6.840;2023-04-25T09:27:34;13.53;;;3.40;;
15327;SDS011;7764;51.430;6.840;2023-04-25T09:30:02;10.50;;;3.70;;
15327;SDS011;7764;51.430;6.840;2023-04-25T09:32:29;11.07;;;3.67;;
15327;SDS011;7764;51.430;6.840;2023-04-25T09:34:57;8.63;;;3.40;;
15327;SDS011;7764;51.430;6.840;2023-04-25T09:37:24;8.93;;;3.60;;
15327;SDS011;7764;51.430;6.840;2023-04-25T09:39:54;9.27;;;3.20;;
15327;SDS011;7764;51.430;6.840;2023-04-25T09:42:23;11.70;;;3.27;;
15327;SDS011;7764;51.430;6.840;2023-04-25T09:44:52;9.63;;;3.30;;
15327;SDS011;7764;51.430;6.840;2023-04-25T09:47:20;13.00;;;3.37;;
15327;SDS011;7764;51.430;6.840;2023-04-25T09:49:49;13.40;;;3.33;;
15327;SDS011;7764;51.430;6.840;2023-04-25T09:52:17;9.77;;;3.30;;
15327;SDS011;7764;51.430;6.840;2023-04-25T09:54:45;13.00;;;3.47;;
15327;SDS011;7764;51.430;6.840;2023-04-25T09:57:12;8.03;;;2.70;;
15327;SDS011;7764;51.430;6.840;2023-04-25T09:59:44;6.93;;;2.40;;
15327;SDS011;7764;51.430;6.840;2023-04-25T10:02:12;9.07;;;2.80;;
15327;SDS011;7764;51.430;6.840;2023-04-25T10:04:39;8.70;;;2.70;;
15327;SDS011;7764;51.430;6.840;2023-04-25T10:07:08;6.97;;;2.50;;
15327;SDS011;7764;51.430;6.840;2023-04-25T10:09:36;5.43;;;2.13;;
15327;SDS011;7764;51.430;6.840;2023-04-25T10:12:05;7.47;;;2.90;;
15327;SDS011;7764;51.430;6.840;2023-04-25T10:14:33;7.73;;;2.40;;
15327;SDS011;7764;51.430;6.840;2023-04-25T10:17:02;6.47;;;2.47;;
15327;SDS011;7764;51.430;6.840;2023-04-25T10:19:30;9.17;;;3.83;;
15327;SDS011;7764;51.430;6.840;2023-04-25T10:22:02;4.43;;;1.90;;
15327;SDS011;7764;51.430;6.840;2023-04-25T10:24:32;5.90;;;2.37;;
15327;SDS011;7764;51.430;6.840;2023-04-25T10:27:00;7.50;;;2.30;;
15327;SDS011;7764;51.430;6.840;2023-04-25T10:29:28;7.97;;;3.03;;
15327;SDS011;7764;51.430;6.840;2023-04-25T10:31:55;8.53;;;2.73;;
15327;SDS011;7764;51.430;6.840;2023-04-25T10:34:39;6.27;;;2.60;;
15327;SDS011;7764;51.430;6.840;2023-04-25T10:37:08;6.87;;;2.23;;
15327;SDS011;7764;51.430;6.840;2023-04-25T10:39:35;11.57;;;2.70;;
15327;SDS011;7764;51.430;6.840;2023-04-25T10:42:04;7.83;;;2.40;;
15327;SDS011;7764;51.430;6.840;2023-04-25T10:44:32;5.07;;;2.53;;
15327;SDS011;7764;51.430;6.840;2023-04-25T10:47:00;9.07;;;2.83;;
15327;SDS011;7764;51.430;6.840;2023-04-25T10:49:31;6.13;;;2.43;;
15327;SDS011;7764;51.430;6.840;2023-04-25T10:52:17;7.27;;;2.53;;
15327;SDS011;7764;51.430;6.840;2023-04-25T10:54:49;5.70;;;2.20;;
15327;SDS011;7764;51.430;6.840;2023-04-25T10:57:28;6.10;;;2.23;;
15327;SDS011;7764;51.430;6.840;2023-04-25T10:59:58;6.83;;;2.10;;
15327;SDS011;7764;51.430;6.840;2023-04-25T11:02:26;8.50;;;2.43;;
15327;SDS011;7764;51.430;6.840;2023-04-25T11:04:54;5.10;;;2.20;;
15327;SDS011;7764;51.430;6.840;2023-04-25T11:07:26;10.73;;;2.87;;
15327;SDS011;7764;51.430;6.840;2023-04-25T11:10:01;7.70;;;2.27;;
15327;SDS011;7764;51.430;6.840;2023-04-25T11:12:29;7.57;;;2.50;;
15327;SDS011;7764;51.430;6.840;2023-04-25T11:14:58;6.73;;;2.30;;
15327;SDS011;7764;51.430;6.840;2023-04-25T11:17:26;5.20;;;2.47;;
15327;SDS011;7764;51.430;6.840;2023-04-25T11:19:53;7.50;;;2.50;;
15327;SDS011;7764;51.430;6.840;2023-04-25T11:22:20;9.17;;;2.47;;
15327;SDS011;7764;51.430;6.840;2023-04-25T11:24:49;7.83;;;2.50;;
15327;SDS011;7764;51.430;6.840;2023-04-25T11:27:16;11.17;;;3.10;;
15327;SDS011;7764;51.430;6.840;2023-04-25T11:29:43;6.20;;;2.40;;
15327;SDS011;7764;51.430;6.840;2023-04-25T11:32:12;6.37;;;2.20;;
15327;SDS011;7764;51.430;6.840;2023-04-25T11:34:42;6.73;;;2.23;;
15327;SDS011;7764;51.430;6.840;2023-04-25T11:37:10;7.43;;;2.43;;
15327;SDS011;7764;51.430;6.840;2023-04-25T11:39:37;7.23;;;2.40;;
15327;SDS011;7764;51.430;6.840;2023-04-25T11:42:05;6.77;;;2.20;;
15327;SDS011;7764;51.430;6.840;2023-04-25T11:44:32;10.80;;;3.00;;
15327;SDS011;7764;51.430;6.840;2023-04-25T11:46:59;7.87;;;2.73;;
15327;SDS011;7764;51.430;6.840;2023-04-25T11:49:29;10.33;;;2.90;;
15327;SDS011;7764;51.430;6.840;2023-04-25T11:51:57;8.73;;;2.70;;
15327;SDS011;7764;51.430;6.840;2023-04-25T11:54:23;9.63;;;3.00;;
15327;SDS011;7764;51.430;6.840;2023-04-25T11:56:51;6.97;;;2.70;;
15327;SDS011;7764;51.430;6.840;2023-04-25T11:59:19;7.17;;;3.10;;
15327;SDS011;7764;51.430;6.840;2023-04-25T12:01:50;11.07;;;3.93;;
15327;SDS011;7764;51.430;6.840;2023-04-25T12:04:17;8.60;;;3.53;;
15327;SDS011;7764;51.430;6.840;2023-04-25T12:06:46;9.27;;;3.53;;
15327;SDS011;7764;51.430;6.840;2023-04-25T12:09:15;11.03;;;3.60;;
15327;SDS011;7764;51.430;6.840;2023-04-25T12:11:46;9.67;;;3.13;;
15327;SDS011;7764;51.430;6.840;2023-04-25T12:14:21;5.83;;;2.60;;
15327;SDS011;7764;51.430;6.840;2023-04-25T12:16:50;6.13;;;2.60;;
15327;SDS011;7764;51.430;6.840;2023-04-25T12:19:19;7.03;;;3.03;;
15327;SDS011;7764;51.430;6.840;2023-04-25T12:21:46;13.83;;;3.30;;
15327;SDS011;7764;51.430;6.840;2023-04-25T12:24:14;12.40;;;3.50;;
15327;SDS011;7764;51.430;6.840;2023-04-25T12:26:46;9.37;;;3.20;;
15327;SDS011;7764;51.430;6.840;2023-04-25T12:29:18;8.00;;;3.50;;
15327;SDS011;7764;51.430;6.840;2023-04-25T12:31:48;10.43;;;3.77;;
15327;SDS011;7764;51.430;6.840;2023-04-25T12:34:16;12.30;;;3.63;;
15327;SDS011;7764;51.430;6.840;2023-04-25T12:36:43;10.47;;;3.40;;
15327;SDS011;7764;51.430;6.840;2023-04-25T12:39:14;8.50;;;3.00;;
15327;SDS011;7764;51.430;6.840;2023-04-25T12:41:41;10.77;;;2.73;;
15327;SDS011;7764;51.430;6.840;2023-04-25T12:44:11;7.67;;;2.60;;
15327;SDS011;7764;51.430;6.840;2023-04-25T12:46:40;11.33;;;2.70;;
15327;SDS011;7764;51.430;6.840;2023-04-25T12:49:07;8.33;;;2.40;;
15327;SDS011;7764;51.430;6.840;2023-04-25T12:51:35;5.57;;;2.40;;
15327;SDS011;7764;51.430;6.840;2023-04-25T12:54:03;6.57;;;2.40;;
15327;SDS011;7764;51.430;6.840;2023-04-25T12:56:32;10.27;;;2.77;;
15327;SDS011;7764;51.430;6.840;2023-04-25T12:58:59;6.17;;;2.27;;
15327;SDS011;7764;51.430;6.840;2023-04-25T13:01:25;11.03;;;2.80;;
15327;SDS011;7764;51.430;6.840;2023-04-25T13:03:54;8.40;;;2.70;;
15327;SDS011;7764;51.430;6.840;2023-04-25T13:06:22;5.63;;;2.37;;
15327;SDS011;7764;51.430;6.840;2023-04-25T13:08:49;6.83;;;2.50;;
15327;SDS011;7764;51.430;6.840;2023-04-25T13:11:16;7.93;;;2.60;;
15327;SDS011;7764;51.430;6.840;2023-04-25T13:13:43;6.60;;;2.53;;
15327;SDS011;7764;51.430;6.840;2023-04-25T13:16:10;8.90;;;2.80;;
15327;SDS011;7764;51.430;6.840;2023-04-25T13:18:39;7.33;;;2.23;;
15327;SDS011;7764;51.430;6.840;2023-04-25T13:21:07;10.57;;;2.70;;
15327;SDS011;7764;51.430;6.840;2023-04-25T13:23:36;7.53;;;2.07;;
15327;SDS011;7764;51.430;6.840;2023-04-25T13:26:02;7.87;;;2.40;;
15327;SDS011;7764;51.430;6.840;2023-04-25T13:28:30;7.03;;;2.50;;
15327;SDS011;7764;51.430;6.840;2023-04-25T13:30:57;6.67;;;2.23;;
15327;SDS011;7764;51.430;6.840;2023-04-25T13:33:24;9.43;;;2.30;;
15327;SDS011;7764;51.430;6.840;2023-04-25T13:35:51;5.37;;;1.90;;
15327;SDS011;7764;51.430;6.840;2023-04-25T13:38:22;9.47;;;2.30;;
15327;SDS011;7764;51.430;6.840;2023-04-25T13:40:50;7.83;;;2.60;;
15327;SDS011;7764;51.430;6.840;2023-04-25T13:43:18;10.50;;;3.00;;
15327;SDS011;7764;51.430;6.840;2023-04-25T13:45:45;7.67;;;3.63;;
15327;SDS011;7764;51.430;6.840;2023-04-25T13:48:12;9.77;;;2.97;;
15327;SDS011;7764;51.430;6.840;2023-04-25T13:50:39;8.33;;;2.73;;
15327;SDS011;7764;51.430;6.840;2023-04-25T13:53:06;10.67;;;3.20;;
15327;SDS011;7764;51.430;6.840;2023-04-25T13:55:35;7.07;;;2.50;;
15327;SDS011;7764;51.430;6.840;2023-04-25T13:58:02;11.23;;;2.77;;
15327;SDS011;7764;51.430;6.840;2023-04-25T14:00:32;7.60;;;2.57;;
15327;SDS011;7764;51.430;6.840;2023-04-25T14:03:00;7.67;;;2.43;;
15327;SDS011;7764;51.430;6.840;2023-04-25T14:05:29;8.30;;;2.53;;
15327;SDS011;7764;51.430;6.840;2023-04-25T14:07:57;5.43;;;2.30;;
15327;SDS011;7764;51.430;6.840;2023-04-25T14:10:24;7.67;;;2.60;;
15327;SDS011;7764;51.430;6.840;2023-04-25T14:12:52;7.47;;;2.57;;
15327;SDS011;7764;51.430;6.840;2023-04-25T14:15:19;7.97;;;2.20;;
15327;SDS011;7764;51.430;6.840;2023-04-25T14:17:46;4.70;;;2.10;;
15327;SDS011;7764;51.430;6.840;2023-04-25T14:20:14;6.80;;;2.23;;
15327;SDS011;7764;51.430;6.840;2023-04-25T14:22:45;7.73;;;2.67;;
15327;SDS011;7764;51.430;6.840;2023-04-25T14:25:12;7.20;;;2.33;;
15327;SDS011;7764;51.430;6.840;2023-04-25T14:27:39;5.30;;;2.10;;
15327;SDS011;7764;51.430;6.840;2023-04-25T14:30:08;4.00;;;1.70;;
15327;SDS011;7764;51.430;6.840;2023-04-25T14:32:36;5.17;;;2.37;;
15327;SDS011;7764;51.430;6.840;2023-04-25T14:35:04;5.83;;;1.80;;
15327;SDS011;7764;51.430;6.840;2023-04-25T14:37:32;6.17;;;1.70;;
15327;SDS011;7764;51.430;6.840;2023-04-25T14:39:59;5.10;;;2.20;;
15327;SDS011;7764;51.430;6.840;2023-04-25T14:42:26;8.97;;;2.77;;
15327;SDS011;7764;51.430;6.840;2023-04-25T14:44:53;6.53;;;2.20;;
15327;SDS011;7764;51.430;6.840;2023-04-25T14:47:21;7.70;;;2.23;;
15327;SDS011;7764;51.430;6.840;2023-04-25T14:49:48;7.10;;;2.33;;
15327;SDS011;7764;51.430;6.840;2023-04-25T14:52:19;6.47;;;2.13;;
15327;SDS011;7764;51.430;6.840;2023-04-25T14:54:46;9.83;;;2.37;;